createdAt,value
2022-11-16T00:02:10.444Z,81.40
2022-11-16T00:04:36.936Z,81.84
2022-11-16T00:07:03.365Z,82.13
2022-11-16T00:09:32.123Z,81.71
2022-11-16T00:12:07.256Z,82.56
2022-11-16T00:14:35.468Z,82.74
2022-11-16T00:17:02.401Z,82.76
2022-11-16T00:19:29.642Z,82.41
2022-11-16T00:21:56.008Z,82.95
2022-11-16T00:24:23.763Z,82.73
2022-11-16T00:26:51.099Z,82.70
2022-11-16T00:29:25.218Z,83.62
2022-11-16T00:31:53.659Z,84.52
2022-11-16T00:34:21.284Z,84.92
2022-11-16T00:36:48.295Z,85.43
2022-11-16T00:39:16.262Z,84.69
2022-11-16T00:41:43.424Z,83.87
2022-11-16T00:44:10.953Z,83.13
2022-11-16T00:46:37.387Z,82.20
2022-11-16T00:49:05.326Z,81.82
2022-11-16T00:51:32.431Z,81.53
2022-11-16T00:53:58.808Z,81.68
2022-11-16T00:56:25.234Z,82.13
2022-11-16T00:58:51.618Z,82.63
2022-11-16T01:01:18.521Z,83.43
2022-11-16T01:03:45.866Z,84.40
2022-11-16T01:06:14.230Z,84.88
2022-11-16T01:08:41.686Z,84.47
2022-11-16T01:11:28.433Z,83.90
2022-11-16T01:13:55.450Z,83.24
2022-11-16T01:16:23.392Z,82.67
2022-11-16T01:18:52.125Z,82.29
2022-11-16T01:21:19.668Z,81.91
2022-11-16T01:23:46.105Z,81.11
2022-11-16T01:26:12.522Z,80.90
2022-11-16T01:28:38.862Z,80.57
2022-11-16T01:31:05.788Z,80.65
2022-11-16T01:33:32.367Z,81.26
2022-11-16T01:35:58.690Z,81.28
2022-11-16T01:38:29.526Z,81.12
2022-11-16T01:40:56.433Z,81.38
2022-11-16T01:43:25.429Z,80.88
2022-11-16T01:45:52.461Z,81.65
2022-11-16T01:48:30.126Z,82.16
2022-11-16T01:50:57.761Z,81.23
2022-11-16T01:53:24.787Z,82.26
2022-11-16T01:55:51.975Z,83.08
2022-11-16T01:58:22.927Z,83.25
2022-11-16T02:00:49.478Z,83.21
2022-11-16T02:03:20.425Z,82.32
2022-11-16T02:05:54.331Z,80.96
2022-11-16T02:09:01.738Z,80.55
2022-11-16T02:11:50.949Z,81.21
2022-11-16T02:14:38.965Z,82.25
2022-11-16T02:17:32.826Z,82.11
2022-11-16T02:20:14.398Z,81.81
2022-11-16T02:23:12.773Z,82.23
2022-11-16T02:25:59.594Z,82.06
2022-11-16T02:28:57.788Z,83.78
2022-11-16T02:31:31.135Z,84.59
2022-11-16T02:33:59.118Z,85.22
2022-11-16T02:36:26.069Z,85.46
2022-11-16T02:39:01.469Z,85.38
2022-11-16T02:41:33.633Z,84.90
2022-11-16T02:44:11.247Z,84.05
2022-11-16T02:46:41.732Z,82.73
2022-11-16T02:49:14.044Z,82.07
2022-11-16T02:51:42.421Z,81.12
2022-11-16T02:54:12.914Z,80.16
2022-11-16T02:56:52.311Z,79.38
2022-11-16T02:59:19.799Z,79.04
2022-11-16T03:01:59.177Z,79.20
2022-11-16T03:04:30.118Z,80.00
2022-11-16T03:06:58.053Z,83.10
2022-11-16T03:09:31.424Z,84.55
2022-11-16T03:12:02.885Z,86.11
2022-11-16T03:14:47.751Z,87.60
2022-11-16T03:17:26.269Z,87.61
2022-11-16T03:20:15.002Z,88.41
2022-11-16T03:22:41.264Z,88.90
2022-11-16T03:25:11.292Z,88.84
2022-11-16T03:27:51.717Z,89.67
2022-11-16T03:30:23.720Z,89.08
2022-11-16T03:33:02.331Z,88.84
2022-11-16T03:36:02.533Z,88.88
2022-11-16T03:38:30.713Z,88.40
2022-11-16T03:41:02.604Z,88.35
2022-11-16T03:43:30.812Z,88.39
2022-11-16T03:45:58.078Z,88.32
2022-11-16T03:48:24.882Z,88.14
2022-11-16T03:50:52.276Z,88.08
2022-11-16T03:53:18.598Z,87.89
2022-11-16T03:55:49.632Z,87.28
2022-11-16T03:58:18.715Z,86.97
2022-11-16T04:00:45.368Z,86.19
2022-11-16T04:03:11.955Z,85.91
2022-11-16T04:05:57.337Z,86.02
2022-11-16T04:08:42.386Z,85.63
2022-11-16T04:11:32.824Z,85.91
2022-11-16T04:14:18.213Z,85.45
2022-11-16T04:17:02.975Z,85.23
2022-11-16T04:19:47.850Z,85.03
2022-11-16T04:22:40.350Z,84.47
2022-11-16T04:25:21.420Z,84.01
2022-11-16T04:28:07.225Z,83.11
2022-11-16T04:30:52.666Z,82.24
2022-11-16T04:33:37.714Z,81.38
2022-11-16T04:36:23.107Z,81.01
2022-11-16T04:38:49.437Z,81.10
2022-11-16T04:41:34.474Z,80.25
2022-11-16T04:44:00.819Z,79.64
2022-11-16T04:46:45.816Z,79.41
2022-11-16T04:49:12.160Z,78.58
2022-11-16T04:51:38.533Z,78.06
2022-11-16T04:54:04.968Z,77.78
2022-11-16T04:56:31.296Z,77.58
2022-11-16T04:58:57.699Z,77.30
2022-11-16T05:01:44.164Z,77.09
2022-11-16T05:04:10.925Z,77.43
2022-11-16T05:06:37.308Z,78.98
2022-11-16T05:09:03.826Z,78.86
2022-11-16T05:11:30.378Z,78.15
2022-11-16T05:13:56.750Z,77.65
2022-11-16T05:16:23.088Z,77.63
2022-11-16T05:19:09.383Z,77.36
2022-11-16T05:21:35.745Z,76.89
2022-11-16T05:24:21.088Z,76.80
2022-11-16T05:26:47.462Z,76.82
2022-11-16T05:29:13.909Z,76.66
2022-11-16T05:31:40.730Z,76.47
2022-11-16T05:34:08.849Z,76.48
2022-11-16T05:36:35.170Z,75.84
2022-11-16T05:39:01.699Z,75.92
2022-11-16T05:41:28.304Z,76.03
2022-11-16T05:43:55.631Z,76.33
2022-11-16T05:46:22.463Z,76.36
2022-11-16T05:48:49.169Z,76.53
2022-11-16T05:51:15.784Z,77.36
2022-11-16T05:53:44.036Z,77.65
2022-11-16T05:56:11.657Z,79.11
2022-11-16T05:58:38.029Z,78.77
2022-11-16T06:01:04.409Z,78.67
2022-11-16T06:03:31.853Z,78.83
2022-11-16T06:05:58.769Z,79.54
2022-11-16T06:08:25.117Z,80.40
2022-11-16T06:10:51.635Z,80.59
2022-11-16T06:13:18.238Z,81.91
2022-11-16T06:15:51.148Z,81.83
2022-11-16T06:18:17.543Z,81.81
2022-11-16T06:20:43.890Z,81.70
2022-11-16T06:23:10.227Z,82.38
2022-11-16T06:25:39.021Z,82.07
2022-11-16T06:28:08.100Z,82.61
2022-11-16T06:30:34.873Z,82.40
2022-11-16T06:33:01.233Z,82.50
2022-11-16T06:35:27.552Z,81.59
2022-11-16T06:37:53.884Z,81.53
2022-11-16T06:40:20.235Z,81.43
2022-11-16T06:42:46.847Z,80.90
2022-11-16T06:45:13.328Z,80.58
2022-11-16T06:47:39.710Z,79.88
2022-11-16T06:50:06.466Z,79.64
2022-11-16T06:52:32.825Z,79.77
2022-11-16T06:54:59.151Z,79.53
2022-11-16T06:57:25.486Z,79.21
2022-11-16T06:59:51.806Z,78.65
2022-11-16T07:02:21.193Z,79.26
2022-11-16T07:04:47.736Z,79.98
2022-11-16T07:07:16.335Z,80.37
2022-11-16T07:09:44.434Z,80.88
2022-11-16T07:12:10.790Z,81.00
2022-11-16T07:14:37.162Z,81.23
2022-11-16T07:17:09.124Z,81.02
2022-11-16T07:19:36.621Z,80.04
2022-11-16T07:22:04.104Z,80.45
2022-11-16T07:24:30.429Z,79.73
2022-11-16T07:26:57.236Z,79.54
2022-11-16T07:29:24.412Z,80.56
2022-11-16T07:31:50.998Z,80.14
2022-11-16T07:34:17.331Z,80.69
2022-11-16T07:36:44.081Z,81.68
2022-11-16T07:39:10.517Z,82.19
2022-11-16T07:41:42.308Z,82.68
2022-11-16T07:44:12.073Z,82.79
2022-11-16T07:46:47.771Z,83.15
2022-11-16T07:49:16.265Z,83.64
2022-11-16T07:51:43.244Z,84.05
2022-11-16T07:54:16.345Z,84.79
2022-11-16T07:56:42.900Z,84.68
2022-11-16T07:59:09.405Z,84.51
2022-11-16T08:01:36.025Z,84.64
2022-11-16T08:04:02.754Z,85.13
2022-11-16T08:06:31.417Z,84.57
2022-11-16T08:08:59.229Z,84.54
2022-11-16T08:11:26.555Z,84.43
2022-11-16T08:13:53.342Z,84.71
2022-11-16T08:16:22.326Z,84.56
2022-11-16T08:18:48.892Z,84.75
2022-11-16T08:21:17.792Z,84.52
2022-11-16T08:23:47.394Z,84.66
2022-11-16T08:26:17.529Z,84.01
2022-11-16T08:28:46.627Z,83.95
2022-11-16T08:31:31.310Z,83.55
2022-11-16T08:34:00.276Z,83.42
2022-11-16T08:36:26.664Z,83.83
2022-11-16T08:38:53.812Z,83.35
2022-11-16T08:41:21.246Z,83.45
2022-11-16T08:43:50.305Z,83.36
2022-11-16T08:46:17.441Z,82.93
2022-11-16T08:48:44.508Z,83.22
2022-11-16T08:51:19.220Z,82.73
2022-11-16T08:53:48.601Z,82.75
2022-11-16T08:56:16.670Z,82.77
2022-11-16T08:58:47.265Z,82.33
2022-11-16T09:01:19.605Z,82.26
2022-11-16T09:03:46.735Z,81.88
2022-11-16T09:06:13.922Z,81.54
2022-11-16T09:08:42.235Z,81.18
2022-11-16T09:11:11.854Z,81.15
2022-11-16T09:13:38.199Z,80.06
2022-11-16T09:16:05.477Z,80.23
2022-11-16T09:18:32.103Z,79.47
2022-11-16T09:20:58.887Z,80.15
2022-11-16T09:23:28.685Z,79.90
2022-11-16T09:25:55.017Z,80.15
2022-11-16T09:28:22.089Z,79.66
2022-11-16T09:30:50.950Z,79.13
2022-11-16T09:33:17.826Z,79.06
2022-11-16T09:35:44.277Z,78.81
2022-11-16T09:38:12.732Z,78.83
2022-11-16T09:40:46.135Z,78.27
2022-11-16T09:43:53.519Z,77.34
2022-11-16T09:46:32.119Z,77.50
2022-11-16T09:49:02.572Z,76.46
2022-11-16T09:51:33.722Z,76.31
2022-11-16T09:54:16.908Z,75.98
2022-11-16T09:56:46.604Z,75.58
2022-11-16T09:59:23.604Z,75.42
2022-11-16T10:01:58.638Z,73.95
2022-11-16T10:04:38.717Z,74.08
2022-11-16T10:07:15.076Z,73.57
2022-11-16T10:09:42.257Z,73.28
2022-11-16T10:12:20.729Z,73.52
2022-11-16T10:15:13.793Z,73.51
2022-11-16T10:18:05.034Z,73.52
2022-11-16T10:21:03.438Z,72.58
2022-11-16T10:24:04.461Z,70.16
2022-11-16T10:26:47.066Z,69.85
2022-11-16T10:29:36.455Z,69.35
2022-11-16T10:32:26.065Z,68.57
2022-11-16T10:35:06.334Z,68.37
2022-11-16T10:37:37.405Z,68.30
2022-11-16T10:40:24.938Z,68.30
2022-11-16T10:42:57.272Z,67.70
2022-11-16T10:45:31.200Z,68.16
2022-11-16T10:48:03.973Z,67.22
2022-11-16T10:50:39.188Z,68.28
2022-11-16T10:53:05.946Z,68.08
2022-11-16T10:55:32.326Z,68.51
2022-11-16T10:58:02.116Z,68.03
2022-11-16T11:00:40.189Z,67.60
2022-11-16T11:03:07.214Z,67.88
2022-11-16T11:05:36.092Z,67.88
2022-11-16T11:08:10.783Z,66.80
2022-11-16T11:10:40.020Z,66.69
2022-11-16T11:13:12.351Z,65.07
2022-11-16T11:15:40.929Z,64.76
2022-11-16T11:18:19.499Z,64.91
2022-11-16T11:20:52.606Z,63.54
2022-11-16T11:23:23.164Z,63.61
2022-11-16T11:25:52.004Z,63.92
2022-11-16T11:28:31.724Z,63.89
2022-11-16T11:31:11.513Z,62.96
2022-11-16T11:33:41.624Z,61.52
2022-11-16T11:36:21.608Z,61.52
2022-11-16T11:39:26.032Z,62.11
2022-11-16T11:42:14.229Z,62.47
2022-11-16T11:44:50.318Z,62.22
2022-11-16T11:48:04.237Z,60.92
2022-11-16T11:51:09.106Z,61.78
2022-11-16T11:53:58.656Z,62.54
2022-11-16T11:56:27.463Z,61.26
2022-11-16T11:58:55.314Z,61.46
2022-11-16T12:01:33.876Z,61.67
2022-11-16T12:04:24.901Z,60.44
2022-11-16T12:07:03.508Z,59.97
2022-11-16T12:09:32.885Z,59.61
2022-11-16T12:12:39.464Z,59.17
2022-11-16T12:15:47.820Z,58.96
2022-11-16T12:18:38.708Z,59.52
2022-11-16T12:21:13.226Z,59.90
2022-11-16T12:24:04.964Z,59.56
2022-11-16T12:26:49.492Z,58.74
2022-11-16T12:29:29.442Z,59.00
2022-11-16T12:32:29.434Z,58.50
2022-11-16T12:35:09.376Z,59.12
2022-11-16T12:37:49.317Z,60.11
2022-11-16T12:40:30.990Z,61.01
2022-11-16T12:43:23.877Z,60.52
2022-11-16T12:46:19.122Z,60.41
2022-11-16T12:49:20.273Z,58.29
2022-11-16T12:52:11.160Z,58.74
2022-11-16T12:55:28.021Z,57.15
2022-11-16T12:58:18.619Z,54.88
2022-11-16T13:01:05.720Z,54.04
2022-11-16T13:03:57.055Z,54.33
2022-11-16T13:06:42.547Z,51.57
2022-11-16T13:09:40.122Z,53.11
2022-11-16T13:12:15.125Z,53.59
2022-11-16T13:14:47.462Z,54.33
2022-11-16T13:17:22.779Z,54.51
2022-11-16T13:20:22.537Z,54.24
2022-11-16T13:23:35.834Z,54.70
2022-11-16T13:26:10.396Z,55.10
2022-11-16T13:28:48.959Z,54.60
2022-11-16T13:31:42.274Z,53.01
2022-11-16T13:34:22.751Z,52.25
2022-11-16T13:36:49.170Z,52.99
2022-11-16T13:39:22.869Z,53.38
2022-11-16T13:42:05.331Z,52.42
2022-11-16T13:44:32.855Z,51.47
2022-11-16T13:47:04.608Z,51.32
2022-11-16T13:49:38.502Z,50.81
2022-11-16T13:52:26.627Z,51.09
2022-11-16T13:54:56.091Z,52.30
2022-11-16T13:57:34.003Z,51.86
2022-11-16T14:00:00.428Z,51.13
2022-11-16T14:02:29.151Z,54.24
2022-11-16T14:04:58.731Z,54.10
2022-11-16T14:07:34.480Z,52.65
2022-11-16T14:10:02.165Z,51.63
2022-11-16T14:12:37.462Z,52.04
2022-11-16T14:15:23.695Z,53.25
2022-11-16T14:18:06.760Z,52.60
2022-11-16T14:20:57.835Z,52.42
2022-11-16T14:23:43.034Z,53.25
2022-11-16T14:26:44.120Z,53.48
2022-11-16T14:29:26.545Z,53.13
2022-11-16T14:31:58.606Z,53.11
2022-11-16T14:34:32.635Z,52.68
2022-11-16T14:37:00.261Z,51.98
2022-11-16T14:39:31.115Z,51.44
2022-11-16T14:42:19.876Z,50.99
2022-11-16T14:44:47.253Z,50.33
2022-11-16T14:47:28.804Z,50.69
2022-11-16T14:49:55.829Z,50.84
2022-11-16T14:52:43.856Z,53.40
2022-11-16T14:55:18.616Z,52.22
2022-11-16T14:57:45.197Z,52.00
2022-11-16T15:00:17.838Z,51.37
2022-11-16T15:02:51.520Z,51.65
2022-11-16T15:05:21.210Z,53.62
2022-11-16T15:07:52.006Z,53.32
2022-11-16T15:10:21.487Z,53.49
2022-11-16T15:12:51.788Z,53.76
2022-11-16T15:15:27.522Z,53.85
2022-11-16T15:17:59.825Z,54.80
2022-11-16T15:20:28.744Z,55.06
2022-11-16T15:22:57.932Z,55.19
2022-11-16T15:25:41.452Z,54.79
2022-11-16T15:28:28.542Z,54.23
2022-11-16T15:30:58.616Z,54.55
2022-11-16T15:33:32.355Z,54.27
2022-11-16T15:35:59.352Z,53.94
2022-11-16T15:38:32.789Z,54.14
2022-11-16T15:41:04.277Z,53.80
2022-11-16T15:43:45.065Z,53.13
2022-11-16T15:46:23.467Z,53.22
2022-11-16T15:48:50.357Z,53.05
2022-11-16T15:51:19.952Z,53.83
2022-11-16T15:53:51.660Z,54.24
2022-11-16T15:56:27.148Z,54.03
2022-11-16T15:59:19.665Z,54.19
2022-11-16T16:01:46.135Z,54.19
2022-11-16T16:04:17.192Z,54.07
2022-11-16T16:06:54.269Z,54.33
2022-11-16T16:09:33.984Z,54.78
2022-11-16T16:12:21.453Z,54.95
2022-11-16T16:14:49.861Z,55.65
2022-11-16T16:17:28.741Z,55.53
2022-11-16T16:20:02.521Z,55.33
2022-11-16T16:22:46.894Z,55.47
2022-11-16T16:25:31.650Z,55.63
2022-11-16T16:27:58.758Z,55.30
2022-11-16T16:30:26.954Z,55.81
2022-11-16T16:32:53.889Z,56.00
2022-11-16T16:35:22.697Z,55.67
2022-11-16T16:37:51.742Z,56.25
2022-11-16T16:40:18.863Z,56.25
2022-11-16T16:42:48.029Z,56.70
2022-11-16T16:45:39.010Z,56.93
2022-11-16T16:48:06.384Z,57.01
2022-11-16T16:50:32.720Z,57.73
2022-11-16T16:52:59.052Z,57.95
2022-11-16T16:55:26.060Z,57.63
2022-11-16T16:57:54.089Z,57.54
2022-11-16T17:00:20.701Z,58.08
2022-11-16T17:02:47.046Z,58.09
2022-11-16T17:05:13.898Z,58.43
2022-11-16T17:07:41.234Z,58.15
2022-11-16T17:10:07.922Z,58.48
2022-11-16T17:12:34.320Z,59.23
2022-11-16T17:15:00.739Z,59.30
2022-11-16T17:17:27.123Z,59.75
2022-11-16T17:19:53.688Z,59.92
2022-11-16T17:22:20.729Z,60.16
2022-11-16T17:24:47.305Z,59.83
2022-11-16T17:27:14.164Z,59.82
2022-11-16T17:29:40.493Z,59.97
2022-11-16T17:32:07.102Z,59.46
2022-11-16T17:34:33.427Z,60.20
2022-11-16T17:37:00.242Z,60.02
2022-11-16T17:39:26.615Z,60.52
2022-11-16T17:41:53.024Z,60.51
2022-11-16T17:44:21.887Z,60.85
2022-11-16T17:46:48.713Z,60.72
2022-11-16T17:49:15.074Z,61.28
2022-11-16T17:51:41.438Z,60.68
2022-11-16T17:54:08.017Z,60.56
2022-11-16T17:56:36.008Z,60.28
2022-11-16T17:59:02.407Z,60.72
2022-11-16T18:01:28.951Z,61.14
2022-11-16T18:03:57.080Z,61.78
2022-11-16T18:06:25.203Z,61.11
2022-11-16T18:08:52.458Z,61.00
2022-11-16T18:11:24.167Z,61.70
2022-11-16T18:13:55.723Z,61.94
2022-11-16T18:16:24.667Z,61.42
2022-11-16T18:18:57.003Z,62.00
2022-11-16T18:21:23.999Z,61.98
2022-11-16T18:23:50.488Z,62.08
2022-11-16T18:26:21.004Z,62.23
2022-11-16T18:28:48.874Z,62.15
2022-11-16T18:31:20.840Z,62.33
2022-11-16T18:33:49.332Z,62.20
2022-11-16T18:36:20.813Z,63.10
2022-11-16T18:38:47.227Z,63.45
2022-11-16T18:41:13.527Z,64.28
2022-11-16T18:43:52.132Z,65.58
2022-11-16T18:46:20.229Z,67.49
2022-11-16T18:48:49.921Z,68.94
2022-11-16T18:51:20.994Z,69.15
2022-11-16T18:53:47.419Z,69.22
2022-11-16T18:56:16.003Z,68.16
2022-11-16T18:58:51.967Z,67.98
2022-11-16T19:01:22.205Z,67.15
2022-11-16T19:03:48.974Z,66.88
2022-11-16T19:06:17.455Z,66.20
2022-11-16T19:08:46.871Z,65.61
2022-11-16T19:11:16.784Z,65.78
2022-11-16T19:13:44.532Z,66.05
2022-11-16T19:16:12.562Z,66.73
2022-11-16T19:18:39.399Z,67.68
2022-11-16T19:21:07.645Z,67.86
2022-11-16T19:23:38.963Z,68.24
2022-11-16T19:26:06.176Z,68.13
2022-11-16T19:28:37.170Z,68.46
2022-11-16T19:31:08.533Z,68.79
2022-11-16T19:33:35.449Z,68.74
2022-11-16T19:36:26.182Z,67.80
2022-11-16T19:38:53.347Z,67.62
2022-11-16T19:41:23.375Z,67.04
2022-11-16T19:43:52.491Z,66.65
2022-11-16T19:46:24.129Z,66.12
2022-11-16T19:48:51.620Z,66.54
2022-11-16T19:51:21.150Z,66.69
2022-11-16T19:53:51.013Z,66.24
2022-11-16T19:56:20.133Z,66.45
2022-11-16T19:58:47.064Z,66.68
2022-11-16T20:01:26.110Z,66.61
2022-11-16T20:03:52.537Z,66.54
2022-11-16T20:06:24.827Z,66.45
2022-11-16T20:08:53.912Z,66.34
2022-11-16T20:11:22.993Z,66.72
2022-11-16T20:13:50.751Z,66.67
2022-11-16T20:16:25.869Z,66.75
2022-11-16T20:18:53.373Z,67.20
2022-11-16T20:21:25.724Z,66.73
2022-11-16T20:23:53.712Z,66.85
2022-11-16T20:26:28.800Z,66.73
2022-11-16T20:28:55.299Z,66.82
2022-11-16T20:31:30.361Z,67.26
2022-11-16T20:34:05.318Z,67.19
2022-11-16T20:36:33.218Z,66.97
2022-11-16T20:39:00.628Z,66.79
2022-11-16T20:41:32.943Z,67.36
2022-11-16T20:44:01.332Z,67.33
2022-11-16T20:46:29.982Z,67.62
2022-11-16T20:48:57.459Z,67.10
2022-11-16T20:51:23.844Z,67.22
2022-11-16T20:53:50.489Z,67.19
2022-11-16T20:56:19.335Z,67.02
2022-11-16T20:58:46.868Z,67.23
2022-11-16T21:01:16.636Z,67.26
2022-11-16T21:03:44.517Z,67.25
2022-11-16T21:06:12.592Z,66.97
2022-11-16T21:08:40.021Z,66.99
2022-11-16T21:11:15.022Z,67.25
2022-11-16T21:14:00.103Z,66.99
2022-11-16T21:16:26.834Z,67.18
2022-11-16T21:18:54.305Z,67.22
2022-11-16T21:21:20.688Z,67.79
2022-11-16T21:23:51.538Z,67.39
2022-11-16T21:26:20.485Z,67.79
2022-11-16T21:28:46.892Z,67.54
2022-11-16T21:31:15.831Z,68.31
2022-11-16T21:33:43.786Z,68.02
2022-11-16T21:36:15.203Z,68.61
2022-11-16T21:38:42.366Z,68.84
2022-11-16T21:41:10.613Z,68.86
2022-11-16T21:43:37.778Z,69.07
2022-11-16T21:46:07.728Z,69.40
2022-11-16T21:48:36.063Z,69.21
2022-11-16T21:51:05.132Z,69.34
2022-11-16T21:53:31.659Z,69.50
2022-11-16T21:55:58.280Z,69.44
2022-11-16T21:58:25.074Z,69.26
2022-11-16T22:00:56.518Z,69.15
2022-11-16T22:03:28.359Z,69.73
2022-11-16T22:06:14.883Z,69.41
2022-11-16T22:08:41.718Z,69.09
2022-11-16T22:11:09.118Z,69.26
2022-11-16T22:13:36.774Z,68.88
2022-11-16T22:16:12.044Z,69.02
2022-11-16T22:18:38.706Z,68.82
2022-11-16T22:21:05.717Z,68.94
2022-11-16T22:23:33.281Z,68.79
2022-11-16T22:26:11.079Z,69.04
2022-11-16T22:28:38.102Z,68.96
2022-11-16T22:31:10.622Z,69.61
2022-11-16T22:33:37.669Z,68.47
2022-11-16T22:36:04.701Z,69.71
2022-11-16T22:38:31.707Z,70.76
2022-11-16T22:40:58.020Z,70.54
2022-11-16T22:43:27.197Z,71.60
2022-11-16T22:46:01.784Z,70.64
2022-11-16T22:48:37.144Z,71.07
2022-11-16T22:51:21.933Z,70.68
2022-11-16T22:53:55.714Z,70.52
2022-11-16T22:56:22.658Z,71.16
2022-11-16T22:58:49.349Z,70.67
2022-11-16T23:01:15.949Z,71.36
2022-11-16T23:03:42.564Z,71.69
2022-11-16T23:06:09.576Z,71.80
2022-11-16T23:08:36.564Z,74.19
2022-11-16T23:11:27.761Z,77.13
2022-11-16T23:14:13.124Z,78.45
2022-11-16T23:16:40.700Z,78.25
2022-11-16T23:19:29.083Z,77.38
2022-11-16T23:22:28.826Z,75.75
2022-11-16T23:25:13.829Z,74.62
2022-11-16T23:27:55.142Z,74.13
2022-11-16T23:30:21.500Z,73.61
2022-11-16T23:32:48.077Z,74.95
2022-11-16T23:35:14.579Z,75.38
2022-11-16T23:37:58.210Z,74.16
2022-11-16T23:40:27.528Z,73.79
2022-11-16T23:43:13.328Z,73.34
2022-11-16T23:45:40.881Z,72.77
2022-11-16T23:48:09.045Z,72.68
2022-11-16T23:50:36.120Z,72.43
2022-11-16T23:53:02.813Z,72.64
2022-11-16T23:55:29.186Z,72.44
2022-11-16T23:57:55.727Z,71.93
